sensor_id;sensor_type;location;lat;lon;timestamp;temperature;humidity
42683;DHT22;28293;50.930;3.464;2022-09-09T00:01:30;15.60;88.80
42683;DHT22;28293;50.930;3.464;2022-09-09T00:03:59;15.50;88.80
42683;DHT22;28293;50.930;3.464;2022-09-09T00:06:31;15.50;88.90
42683;DHT22;28293;50.930;3.464;2022-09-09T00:09:06;15.50;88.90
42683;DHT22;28293;50.930;3.464;2022-09-09T00:12:02;15.50;88.90
42683;DHT22;28293;50.930;3.464;2022-09-09T00:17:32;15.50;88.90
42683;DHT22;28293;50.930;3.464;2022-09-09T00:20:29;15.50;88.80
42683;DHT22;28293;50.930;3.464;2022-09-09T00:23:03;15.50;88.70
42683;DHT22;28293;50.930;3.464;2022-09-09T00:27:59;15.40;88.80
42683;DHT22;28293;50.930;3.464;2022-09-09T00:30:29;15.40;88.60
42683;DHT22;28293;50.930;3.464;2022-09-09T00:33:01;15.40;88.70
42683;DHT22;28293;50.930;3.464;2022-09-09T00:35:36;15.40;88.90
42683;DHT22;28293;50.930;3.464;2022-09-09T00:41:03;15.40;88.80
42683;DHT22;28293;50.930;3.464;2022-09-09T00:43:35;15.50;88.90
42683;DHT22;28293;50.930;3.464;2022-09-09T00:46:30;15.50;88.70
42683;DHT22;28293;50.930;3.464;2022-09-09T00:49:22;15.50;88.80
42683;DHT22;28293;50.930;3.464;2022-09-09T00:57:42;15.50;88.10
42683;DHT22;28293;50.930;3.464;2022-09-09T01:00:29;15.50;88.10
42683;DHT22;28293;50.930;3.464;2022-09-09T01:05:45;15.50;87.90
42683;DHT22;28293;50.930;3.464;2022-09-09T01:10:50;15.50;88.00
42683;DHT22;28293;50.930;3.464;2022-09-09T01:13:25;15.40;88.00
42683;DHT22;28293;50.930;3.464;2022-09-09T01:15:51;15.30;88.10
42683;DHT22;28293;50.930;3.464;2022-09-09T01:18:21;15.40;88.20
42683;DHT22;28293;50.930;3.464;2022-09-09T01:24:05;15.30;88.40
42683;DHT22;28293;50.930;3.464;2022-09-09T01:26:58;15.30;88.30
42683;DHT22;28293;50.930;3.464;2022-09-09T01:29:25;15.30;88.20
42683;DHT22;28293;50.930;3.464;2022-09-09T01:31:59;15.30;88.20
42683;DHT22;28293;50.930;3.464;2022-09-09T01:34:27;15.30;88.20
42683;DHT22;28293;50.930;3.464;2022-09-09T01:37:07;15.20;88.40
42683;DHT22;28293;50.930;3.464;2022-09-09T01:39:35;15.30;88.30
42683;DHT22;28293;50.930;3.464;2022-09-09T01:42:02;15.30;88.50
42683;DHT22;28293;50.930;3.464;2022-09-09T01:44:30;15.20;88.40
42683;DHT22;28293;50.930;3.464;2022-09-09T01:46:56;15.20;88.60
42683;DHT22;28293;50.930;3.464;2022-09-09T01:49:22;15.20;88.60
42683;DHT22;28293;50.930;3.464;2022-09-09T01:51:54;15.20;88.70
42683;DHT22;28293;50.930;3.464;2022-09-09T01:54:23;15.20;88.70
42683;DHT22;28293;50.930;3.464;2022-09-09T01:57:11;15.20;88.70
42683;DHT22;28293;50.930;3.464;2022-09-09T02:05:40;15.20;88.90
42683;DHT22;28293;50.930;3.464;2022-09-09T02:08:23;15.20;89.00
42683;DHT22;28293;50.930;3.464;2022-09-09T02:11:23;15.30;89.00
42683;DHT22;28293;50.930;3.464;2022-09-09T02:13:50;15.30;88.90
42683;DHT22;28293;50.930;3.464;2022-09-09T02:16:47;15.30;88.90
42683;DHT22;28293;50.930;3.464;2022-09-09T02:19:25;15.40;89.00
42683;DHT22;28293;50.930;3.464;2022-09-09T02:21:54;15.50;89.00
42683;DHT22;28293;50.930;3.464;2022-09-09T02:24:21;15.40;88.70
42683;DHT22;28293;50.930;3.464;2022-09-09T02:26:50;15.50;88.70
42683;DHT22;28293;50.930;3.464;2022-09-09T02:29:28;15.50;88.60
42683;DHT22;28293;50.930;3.464;2022-09-09T02:31:59;15.50;88.70
42683;DHT22;28293;50.930;3.464;2022-09-09T02:34:28;15.50;88.60
42683;DHT22;28293;50.930;3.464;2022-09-09T02:36:57;15.50;88.50
42683;DHT22;28293;50.930;3.464;2022-09-09T02:39:25;15.40;88.60
42683;DHT22;28293;50.930;3.464;2022-09-09T02:41:51;15.40;88.70
42683;DHT22;28293;50.930;3.464;2022-09-09T02:44:18;15.40;88.80
42683;DHT22;28293;50.930;3.464;2022-09-09T02:47:08;15.40;88.80
42683;DHT22;28293;50.930;3.464;2022-09-09T02:55:10;15.40;88.70
42683;DHT22;28293;50.930;3.464;2022-09-09T02:57:38;15.40;88.90
42683;DHT22;28293;50.930;3.464;2022-09-09T03:00:04;15.30;88.80
42683;DHT22;28293;50.930;3.464;2022-09-09T03:02:30;15.30;88.90
42683;DHT22;28293;50.930;3.464;2022-09-09T03:04:56;15.30;89.00
42683;DHT22;28293;50.930;3.464;2022-09-09T03:07:22;15.30;88.90
42683;DHT22;28293;50.930;3.464;2022-09-09T03:09:48;15.30;89.10
42683;DHT22;28293;50.930;3.464;2022-09-09T03:12:14;15.30;88.90
42683;DHT22;28293;50.930;3.464;2022-09-09T03:14:39;15.30;89.00
42683;DHT22;28293;50.930;3.464;2022-09-09T03:17:05;15.30;89.00
42683;DHT22;28293;50.930;3.464;2022-09-09T03:19:31;15.30;89.00
42683;DHT22;28293;50.930;3.464;2022-09-09T03:21:57;15.30;88.90
42683;DHT22;28293;50.930;3.464;2022-09-09T03:24:24;15.30;89.00
42683;DHT22;28293;50.930;3.464;2022-09-09T03:26:50;15.40;88.90
42683;DHT22;28293;50.930;3.464;2022-09-09T03:29:16;15.30;88.90
42683;DHT22;28293;50.930;3.464;2022-09-09T03:31:43;15.40;88.80
42683;DHT22;28293;50.930;3.464;2022-09-09T03:34:09;15.50;88.70
42683;DHT22;28293;50.930;3.464;2022-09-09T03:36:35;15.40;88.60
42683;DHT22;28293;50.930;3.464;2022-09-09T03:39:01;15.40;88.40
42683;DHT22;28293;50.930;3.464;2022-09-09T03:41:28;15.40;88.50
42683;DHT22;28293;50.930;3.464;2022-09-09T03:43:55;15.50;88.50
42683;DHT22;28293;50.930;3.464;2022-09-09T03:46:22;15.50;88.40
42683;DHT22;28293;50.930;3.464;2022-09-09T03:48:48;15.50;88.40
42683;DHT22;28293;50.930;3.464;2022-09-09T03:51:14;15.50;88.30
42683;DHT22;28293;50.930;3.464;2022-09-09T03:53:41;15.50;88.30
42683;DHT22;28293;50.930;3.464;2022-09-09T03:56:07;15.50;88.20
42683;DHT22;28293;50.930;3.464;2022-09-09T03:58:36;15.50;88.10
42683;DHT22;28293;50.930;3.464;2022-09-09T04:01:11;15.50;88.10
42683;DHT22;28293;50.930;3.464;2022-09-09T04:03:43;15.50;88.20
42683;DHT22;28293;50.930;3.464;2022-09-09T04:06:14;15.50;88.30
42683;DHT22;28293;50.930;3.464;2022-09-09T04:08:40;15.50;88.30
42683;DHT22;28293;50.930;3.464;2022-09-09T04:11:07;15.50;88.30
42683;DHT22;28293;50.930;3.464;2022-09-09T04:13:37;15.50;88.40
42683;DHT22;28293;50.930;3.464;2022-09-09T04:16:04;15.50;88.40
42683;DHT22;28293;50.930;3.464;2022-09-09T04:18:31;15.50;88.40
42683;DHT22;28293;50.930;3.464;2022-09-09T04:20:57;15.50;88.30
42683;DHT22;28293;50.930;3.464;2022-09-09T04:23:24;15.50;88.30
42683;DHT22;28293;50.930;3.464;2022-09-09T04:25:52;15.50;88.30
42683;DHT22;28293;50.930;3.464;2022-09-09T04:28:20;15.50;88.20
42683;DHT22;28293;50.930;3.464;2022-09-09T04:30:46;15.40;88.20
42683;DHT22;28293;50.930;3.464;2022-09-09T04:33:13;15.50;88.30
42683;DHT22;28293;50.930;3.464;2022-09-09T04:35:39;15.50;88.30
42683;DHT22;28293;50.930;3.464;2022-09-09T04:38:09;15.50;88.10
42683;DHT22;28293;50.930;3.464;2022-09-09T04:40:34;15.50;88.20
42683;DHT22;28293;50.930;3.464;2022-09-09T04:43:01;15.50;88.20
42683;DHT22;28293;50.930;3.464;2022-09-09T04:45:28;15.50;88.20
42683;DHT22;28293;50.930;3.464;2022-09-09T04:47:54;15.50;88.10
42683;DHT22;28293;50.930;3.464;2022-09-09T04:50:19;15.50;88.20
42683;DHT22;28293;50.930;3.464;2022-09-09T04:52:45;15.60;88.20
42683;DHT22;28293;50.930;3.464;2022-09-09T04:55:11;15.60;88.20
42683;DHT22;28293;50.930;3.464;2022-09-09T04:57:38;15.60;88.20
42683;DHT22;28293;50.930;3.464;2022-09-09T05:00:05;15.60;88.30
42683;DHT22;28293;50.930;3.464;2022-09-09T05:02:31;15.60;88.40
42683;DHT22;28293;50.930;3.464;2022-09-09T05:04:57;15.60;88.20
42683;DHT22;28293;50.930;3.464;2022-09-09T05:07:23;15.60;88.40
42683;DHT22;28293;50.930;3.464;2022-09-09T05:09:49;15.60;88.40
42683;DHT22;28293;50.930;3.464;2022-09-09T05:12:16;15.60;88.60
42683;DHT22;28293;50.930;3.464;2022-09-09T05:14:44;15.60;88.80
42683;DHT22;28293;50.930;3.464;2022-09-09T05:17:10;15.60;88.90
42683;DHT22;28293;50.930;3.464;2022-09-09T05:19:36;15.60;88.90
42683;DHT22;28293;50.930;3.464;2022-09-09T05:22:02;15.60;89.20
42683;DHT22;28293;50.930;3.464;2022-09-09T05:24:28;15.60;89.30
42683;DHT22;28293;50.930;3.464;2022-09-09T05:26:54;15.60;89.30
42683;DHT22;28293;50.930;3.464;2022-09-09T05:29:23;15.60;89.30
42683;DHT22;28293;50.930;3.464;2022-09-09T05:31:49;15.60;89.10
42683;DHT22;28293;50.930;3.464;2022-09-09T05:34:14;15.70;89.00
42683;DHT22;28293;50.930;3.464;2022-09-09T05:36:40;15.70;89.00
42683;DHT22;28293;50.930;3.464;2022-09-09T05:39:06;15.70;88.90
42683;DHT22;28293;50.930;3.464;2022-09-09T05:41:31;15.70;89.20
42683;DHT22;28293;50.930;3.464;2022-09-09T05:43:58;15.70;89.30
42683;DHT22;28293;50.930;3.464;2022-09-09T05:46:27;15.70;89.30
42683;DHT22;28293;50.930;3.464;2022-09-09T05:48:53;15.60;89.50
42683;DHT22;28293;50.930;3.464;2022-09-09T05:51:21;15.60;89.50
42683;DHT22;28293;50.930;3.464;2022-09-09T05:53:47;15.60;89.80
42683;DHT22;28293;50.930;3.464;2022-09-09T05:56:16;15.60;89.80
42683;DHT22;28293;50.930;3.464;2022-09-09T05:58:43;15.60;89.90
42683;DHT22;28293;50.930;3.464;2022-09-09T06:01:15;15.60;90.00
42683;DHT22;28293;50.930;3.464;2022-09-09T06:03:42;15.60;90.10
42683;DHT22;28293;50.930;3.464;2022-09-09T06:06:15;15.60;90.10
42683;DHT22;28293;50.930;3.464;2022-09-09T06:08:42;15.60;89.90
42683;DHT22;28293;50.930;3.464;2022-09-09T06:11:17;15.60;89.90
42683;DHT22;28293;50.930;3.464;2022-09-09T06:13:43;15.70;89.90
42683;DHT22;28293;50.930;3.464;2022-09-09T06:16:11;15.70;89.90
42683;DHT22;28293;50.930;3.464;2022-09-09T06:18:38;15.80;89.70
42683;DHT22;28293;50.930;3.464;2022-09-09T06:21:06;15.80;89.70
42683;DHT22;28293;50.930;3.464;2022-09-09T06:23:33;15.90;89.50
42683;DHT22;28293;50.930;3.464;2022-09-09T06:26:10;16.00;89.40
42683;DHT22;28293;50.930;3.464;2022-09-09T06:28:37;15.90;89.00
42683;DHT22;28293;50.930;3.464;2022-09-09T06:31:10;15.90;89.10
42683;DHT22;28293;50.930;3.464;2022-09-09T06:33:38;15.90;88.90
42683;DHT22;28293;50.930;3.464;2022-09-09T06:36:07;15.90;88.70
42683;DHT22;28293;50.930;3.464;2022-09-09T06:38:36;16.00;88.60
42683;DHT22;28293;50.930;3.464;2022-09-09T06:41:02;16.00;88.70
42683;DHT22;28293;50.930;3.464;2022-09-09T06:43:28;16.10;88.60
42683;DHT22;28293;50.930;3.464;2022-09-09T06:48:23;16.20;88.20
42683;DHT22;28293;50.930;3.464;2022-09-09T06:51:01;16.20;87.80
42683;DHT22;28293;50.930;3.464;2022-09-09T06:53:27;16.30;87.90
42683;DHT22;28293;50.930;3.464;2022-09-09T06:55:53;16.40;87.50
42683;DHT22;28293;50.930;3.464;2022-09-09T06:58:18;16.40;87.40
42683;DHT22;28293;50.930;3.464;2022-09-09T07:00:44;16.50;87.40
42683;DHT22;28293;50.930;3.464;2022-09-09T07:03:10;16.50;87.30
42683;DHT22;28293;50.930;3.464;2022-09-09T07:05:36;16.50;87.40
42683;DHT22;28293;50.930;3.464;2022-09-09T07:08:02;16.40;87.40
42683;DHT22;28293;50.930;3.464;2022-09-09T07:10:28;16.40;87.70
42683;DHT22;28293;50.930;3.464;2022-09-09T07:12:53;16.40;87.90
42683;DHT22;28293;50.930;3.464;2022-09-09T07:15:20;16.40;87.70
42683;DHT22;28293;50.930;3.464;2022-09-09T07:17:46;16.40;87.50
42683;DHT22;28293;50.930;3.464;2022-09-09T07:20:13;16.50;87.80
42683;DHT22;28293;50.930;3.464;2022-09-09T07:22:40;16.50;88.10
42683;DHT22;28293;50.930;3.464;2022-09-09T07:25:06;16.50;87.90
42683;DHT22;28293;50.930;3.464;2022-09-09T07:27:32;16.40;87.50
42683;DHT22;28293;50.930;3.464;2022-09-09T07:29:58;16.40;87.80
42683;DHT22;28293;50.930;3.464;2022-09-09T07:32:23;16.30;88.00
42683;DHT22;28293;50.930;3.464;2022-09-09T07:34:51;16.30;88.00
42683;DHT22;28293;50.930;3.464;2022-09-09T07:37:16;16.20;88.30
42683;DHT22;28293;50.930;3.464;2022-09-09T07:39:43;16.20;88.50
42683;DHT22;28293;50.930;3.464;2022-09-09T07:42:09;16.10;88.80
42683;DHT22;28293;50.930;3.464;2022-09-09T07:44:36;16.10;88.80
42683;DHT22;28293;50.930;3.464;2022-09-09T07:47:05;16.10;89.00
42683;DHT22;28293;50.930;3.464;2022-09-09T07:49:31;16.00;89.20
42683;DHT22;28293;50.930;3.464;2022-09-09T07:51:57;16.10;89.30
42683;DHT22;28293;50.930;3.464;2022-09-09T07:54:23;16.00;89.30
42683;DHT22;28293;50.930;3.464;2022-09-09T07:56:49;16.00;89.40
42683;DHT22;28293;50.930;3.464;2022-09-09T07:59:15;16.00;89.60
42683;DHT22;28293;50.930;3.464;2022-09-09T08:01:49;16.00;89.50
42683;DHT22;28293;50.930;3.464;2022-09-09T08:04:19;16.10;89.50
42683;DHT22;28293;50.930;3.464;2022-09-09T08:06:51;16.10;89.50
42683;DHT22;28293;50.930;3.464;2022-09-09T08:09:18;16.10;89.30
42683;DHT22;28293;50.930;3.464;2022-09-09T08:11:45;16.10;89.10
42683;DHT22;28293;50.930;3.464;2022-09-09T08:14:12;16.20;89.10
42683;DHT22;28293;50.930;3.464;2022-09-09T08:16:40;16.20;89.10
42683;DHT22;28293;50.930;3.464;2022-09-09T08:19:07;16.20;89.00
42683;DHT22;28293;50.930;3.464;2022-09-09T08:21:35;16.20;88.90
42683;DHT22;28293;50.930;3.464;2022-09-09T08:24:03;16.20;88.80
42683;DHT22;28293;50.930;3.464;2022-09-09T08:26:42;16.20;89.10
42683;DHT22;28293;50.930;3.464;2022-09-09T08:29:10;16.20;89.00
42683;DHT22;28293;50.930;3.464;2022-09-09T08:31:39;16.30;88.80
42683;DHT22;28293;50.930;3.464;2022-09-09T08:34:06;16.30;88.90
42683;DHT22;28293;50.930;3.464;2022-09-09T08:36:41;16.30;88.90
42683;DHT22;28293;50.930;3.464;2022-09-09T08:39:09;16.20;88.90
42683;DHT22;28293;50.930;3.464;2022-09-09T08:41:53;16.20;88.90
42683;DHT22;28293;50.930;3.464;2022-09-09T08:45:01;16.20;89.00
42683;DHT22;28293;50.930;3.464;2022-09-09T08:50:26;16.20;89.30
42683;DHT22;28293;50.930;3.464;2022-09-09T08:53:17;16.30;89.10
42683;DHT22;28293;50.930;3.464;2022-09-09T08:55:51;16.40;89.10
42683;DHT22;28293;50.930;3.464;2022-09-09T08:58:25;16.50;88.90
42683;DHT22;28293;50.930;3.464;2022-09-09T09:04:15;16.60;88.30
42683;DHT22;28293;50.930;3.464;2022-09-09T09:12:21;17.00;87.60
42683;DHT22;28293;50.930;3.464;2022-09-09T09:14:48;17.10;87.60
42683;DHT22;28293;50.930;3.464;2022-09-09T09:17:18;17.30;87.10
42683;DHT22;28293;50.930;3.464;2022-09-09T09:19:46;17.40;86.80
42683;DHT22;28293;50.930;3.464;2022-09-09T09:22:35;17.30;86.00
42683;DHT22;28293;50.930;3.464;2022-09-09T09:30:31;17.50;85.60
42683;DHT22;28293;50.930;3.464;2022-09-09T09:35:38;17.50;85.30
42683;DHT22;28293;50.930;3.464;2022-09-09T09:40:58;17.50;85.70
42683;DHT22;28293;50.930;3.464;2022-09-09T09:43:34;17.40;85.80
42683;DHT22;28293;50.930;3.464;2022-09-09T09:46:03;17.50;85.40
42683;DHT22;28293;50.930;3.464;2022-09-09T09:48:29;17.50;85.30
42683;DHT22;28293;50.930;3.464;2022-09-09T09:51:01;17.40;85.10
42683;DHT22;28293;50.930;3.464;2022-09-09T09:53:33;17.50;85.40
42683;DHT22;28293;50.930;3.464;2022-09-09T09:56:02;17.50;85.10
42683;DHT22;28293;50.930;3.464;2022-09-09T09:58:31;17.60;85.20
42683;DHT22;28293;50.930;3.464;2022-09-09T10:00:59;17.60;84.40
42683;DHT22;28293;50.930;3.464;2022-09-09T10:03:26;17.70;84.20
42683;DHT22;28293;50.930;3.464;2022-09-09T10:05:53;17.80;83.70
42683;DHT22;28293;50.930;3.464;2022-09-09T10:08:19;17.70;83.80
42683;DHT22;28293;50.930;3.464;2022-09-09T10:16:52;17.90;83.50
42683;DHT22;28293;50.930;3.464;2022-09-09T10:19:36;18.00;83.10
42683;DHT22;28293;50.930;3.464;2022-09-09T10:30:19;18.60;80.40
42683;DHT22;28293;50.930;3.464;2022-09-09T10:35:35;18.50;80.50
42683;DHT22;28293;50.930;3.464;2022-09-09T10:55:18;18.90;80.40
42683;DHT22;28293;50.930;3.464;2022-09-09T10:57:47;19.40;78.60
42683;DHT22;28293;50.930;3.464;2022-09-09T11:00:18;19.60;77.80
42683;DHT22;28293;50.930;3.464;2022-09-09T11:03:04;19.80;77.10
42683;DHT22;28293;50.930;3.464;2022-09-09T11:05:42;20.00;76.40
42683;DHT22;28293;50.930;3.464;2022-09-09T11:08:13;20.30;75.90
42683;DHT22;28293;50.930;3.464;2022-09-09T11:10:59;20.50;75.60
42683;DHT22;28293;50.930;3.464;2022-09-09T11:13:44;20.50;75.20
42683;DHT22;28293;50.930;3.464;2022-09-09T11:16:29;20.80;74.10
42683;DHT22;28293;50.930;3.464;2022-09-09T11:19:35;21.00;72.60
42683;DHT22;28293;50.930;3.464;2022-09-09T11:25:16;20.80;73.50
42683;DHT22;28293;50.930;3.464;2022-09-09T11:30:43;20.50;73.40
42683;DHT22;28293;50.930;3.464;2022-09-09T11:41:41;20.10;75.20
42683;DHT22;28293;50.930;3.464;2022-09-09T11:44:12;20.40;74.80
42683;DHT22;28293;50.930;3.464;2022-09-09T11:46:40;20.60;73.30
42683;DHT22;28293;50.930;3.464;2022-09-09T11:49:41;20.60;73.20
42683;DHT22;28293;50.930;3.464;2022-09-09T11:52:20;20.80;74.10
42683;DHT22;28293;50.930;3.464;2022-09-09T11:54:48;21.20;73.10
42683;DHT22;28293;50.930;3.464;2022-09-09T11:57:40;21.10;72.40
42683;DHT22;28293;50.930;3.464;2022-09-09T12:00:38;21.00;72.60
42683;DHT22;28293;50.930;3.464;2022-09-09T12:03:06;21.40;72.10
42683;DHT22;28293;50.930;3.464;2022-09-09T12:05:52;21.40;70.70
42683;DHT22;28293;50.930;3.464;2022-09-09T12:08:26;21.00;71.10
42683;DHT22;28293;50.930;3.464;2022-09-09T12:10:56;20.90;72.40
42683;DHT22;28293;50.930;3.464;2022-09-09T12:13:24;20.70;72.60
42683;DHT22;28293;50.930;3.464;2022-09-09T12:15:58;20.60;73.40
42683;DHT22;28293;50.930;3.464;2022-09-09T12:18:34;20.60;73.10
42683;DHT22;28293;50.930;3.464;2022-09-09T12:21:41;20.60;73.00
42683;DHT22;28293;50.930;3.464;2022-09-09T12:24:15;20.50;73.90
42683;DHT22;28293;50.930;3.464;2022-09-09T12:27:21;20.40;74.20
42683;DHT22;28293;50.930;3.464;2022-09-09T12:30:01;20.40;74.80
42683;DHT22;28293;50.930;3.464;2022-09-09T12:32:28;20.50;74.00
42683;DHT22;28293;50.930;3.464;2022-09-09T12:35:13;20.40;74.60
42683;DHT22;28293;50.930;3.464;2022-09-09T12:40:21;20.50;74.20
42683;DHT22;28293;50.930;3.464;2022-09-09T12:42:47;20.70;73.80
42683;DHT22;28293;50.930;3.464;2022-09-09T12:45:19;20.80;73.50
42683;DHT22;28293;50.930;3.464;2022-09-09T12:47:50;21.00;72.50
42683;DHT22;28293;50.930;3.464;2022-09-09T12:50:22;21.10;73.20
42683;DHT22;28293;50.930;3.464;2022-09-09T12:52:58;21.10;71.90
42683;DHT22;28293;50.930;3.464;2022-09-09T12:55:28;21.10;72.30
42683;DHT22;28293;50.930;3.464;2022-09-09T12:57:56;20.90;71.50
42683;DHT22;28293;50.930;3.464;2022-09-09T13:00:24;20.80;72.50
42683;DHT22;28293;50.930;3.464;2022-09-09T13:03:02;20.90;72.50
42683;DHT22;28293;50.930;3.464;2022-09-09T13:05:35;21.00;71.90
42683;DHT22;28293;50.930;3.464;2022-09-09T13:08:20;20.80;71.80
42683;DHT22;28293;50.930;3.464;2022-09-09T13:11:04;20.90;72.20
42683;DHT22;28293;50.930;3.464;2022-09-09T13:13:38;21.00;71.90
42683;DHT22;28293;50.930;3.464;2022-09-09T13:16:06;21.10;71.60
42683;DHT22;28293;50.930;3.464;2022-09-09T13:18:35;21.00;71.10
42683;DHT22;28293;50.930;3.464;2022-09-09T13:21:01;21.10;72.50
42683;DHT22;28293;50.930;3.464;2022-09-09T13:23:30;21.00;74.40
42683;DHT22;28293;50.930;3.464;2022-09-09T13:25:59;20.80;75.10
42683;DHT22;28293;50.930;3.464;2022-09-09T13:28:27;20.60;75.70
42683;DHT22;28293;50.930;3.464;2022-09-09T13:31:04;20.50;76.60
42683;DHT22;28293;50.930;3.464;2022-09-09T13:33:38;20.30;78.10
42683;DHT22;28293;50.930;3.464;2022-09-09T13:36:09;20.30;79.60
42683;DHT22;28293;50.930;3.464;2022-09-09T13:38:40;20.40;79.50
42683;DHT22;28293;50.930;3.464;2022-09-09T13:41:10;20.40;77.60
42683;DHT22;28293;50.930;3.464;2022-09-09T13:43:46;20.50;77.10
42683;DHT22;28293;50.930;3.464;2022-09-09T13:46:35;20.40;76.60
42683;DHT22;28293;50.930;3.464;2022-09-09T13:49:19;20.40;76.60
42683;DHT22;28293;50.930;3.464;2022-09-09T13:52:09;20.30;76.20
42683;DHT22;28293;50.930;3.464;2022-09-09T13:54:35;20.10;77.20
42683;DHT22;28293;50.930;3.464;2022-09-09T13:57:01;20.00;79.00
42683;DHT22;28293;50.930;3.464;2022-09-09T13:59:27;20.00;79.30
42683;DHT22;28293;50.930;3.464;2022-09-09T14:01:52;19.90;79.50
42683;DHT22;28293;50.930;3.464;2022-09-09T14:04:19;19.80;79.70
42683;DHT22;28293;50.930;3.464;2022-09-09T14:06:48;19.80;80.20
42683;DHT22;28293;50.930;3.464;2022-09-09T14:09:15;20.10;80.20
42683;DHT22;28293;50.930;3.464;2022-09-09T14:11:42;20.10;78.70
42683;DHT22;28293;50.930;3.464;2022-09-09T14:14:08;20.10;77.40
42683;DHT22;28293;50.930;3.464;2022-09-09T14:16:34;20.00;77.00
42683;DHT22;28293;50.930;3.464;2022-09-09T14:19:00;20.10;77.40
42683;DHT22;28293;50.930;3.464;2022-09-09T14:21:27;20.40;78.10
42683;DHT22;28293;50.930;3.464;2022-09-09T14:23:53;20.60;77.60
42683;DHT22;28293;50.930;3.464;2022-09-09T14:26:20;20.40;73.80
42683;DHT22;28293;50.930;3.464;2022-09-09T14:28:47;20.40;72.00
42683;DHT22;28293;50.930;3.464;2022-09-09T14:31:13;20.40;71.70
42683;DHT22;28293;50.930;3.464;2022-09-09T14:33:39;20.50;71.30
42683;DHT22;28293;50.930;3.464;2022-09-09T14:36:05;20.60;71.60
42683;DHT22;28293;50.930;3.464;2022-09-09T14:38:33;20.60;71.30
42683;DHT22;28293;50.930;3.464;2022-09-09T14:41:00;20.60;70.70
42683;DHT22;28293;50.930;3.464;2022-09-09T14:43:28;20.80;69.40
42683;DHT22;28293;50.930;3.464;2022-09-09T14:45:55;20.80;70.60
42683;DHT22;28293;50.930;3.464;2022-09-09T14:48:21;20.80;70.80
42683;DHT22;28293;50.930;3.464;2022-09-09T14:50:46;20.60;70.20
42683;DHT22;28293;50.930;3.464;2022-09-09T14:53:12;20.60;70.10
42683;DHT22;28293;50.930;3.464;2022-09-09T14:55:38;20.60;69.80
42683;DHT22;28293;50.930;3.464;2022-09-09T14:58:04;20.60;69.90
42683;DHT22;28293;50.930;3.464;2022-09-09T15:00:31;20.60;69.60
42683;DHT22;28293;50.930;3.464;2022-09-09T15:02:57;20.70;70.10
42683;DHT22;28293;50.930;3.464;2022-09-09T15:05:23;20.60;69.00
42683;DHT22;28293;50.930;3.464;2022-09-09T15:07:50;20.70;69.10
42683;DHT22;28293;50.930;3.464;2022-09-09T15:10:16;20.60;69.00
42683;DHT22;28293;50.930;3.464;2022-09-09T15:12:43;20.60;68.90
42683;DHT22;28293;50.930;3.464;2022-09-09T15:15:09;20.40;68.40
42683;DHT22;28293;50.930;3.464;2022-09-09T15:17:35;20.20;70.00
42683;DHT22;28293;50.930;3.464;2022-09-09T15:20:05;20.10;70.70
42683;DHT22;28293;50.930;3.464;2022-09-09T15:22:33;19.90;71.80
42683;DHT22;28293;50.930;3.464;2022-09-09T15:24:59;19.80;72.60
42683;DHT22;28293;50.930;3.464;2022-09-09T15:27:25;19.80;73.30
42683;DHT22;28293;50.930;3.464;2022-09-09T15:29:50;19.70;75.50
42683;DHT22;28293;50.930;3.464;2022-09-09T15:32:17;19.60;76.80
42683;DHT22;28293;50.930;3.464;2022-09-09T15:34:43;19.40;77.60
42683;DHT22;28293;50.930;3.464;2022-09-09T15:37:10;19.40;78.50
42683;DHT22;28293;50.930;3.464;2022-09-09T15:39:39;19.50;79.30
42683;DHT22;28293;50.930;3.464;2022-09-09T15:42:05;19.90;78.70
42683;DHT22;28293;50.930;3.464;2022-09-09T15:44:42;20.10;77.10
42683;DHT22;28293;50.930;3.464;2022-09-09T15:47:10;20.20;77.10
42683;DHT22;28293;50.930;3.464;2022-09-09T15:49:37;20.50;75.00
42683;DHT22;28293;50.930;3.464;2022-09-09T15:52:04;20.60;74.60
42683;DHT22;28293;50.930;3.464;2022-09-09T15:54:34;20.60;75.00
42683;DHT22;28293;50.930;3.464;2022-09-09T15:57:02;20.60;75.10
42683;DHT22;28293;50.930;3.464;2022-09-09T15:59:30;20.60;75.50
42683;DHT22;28293;50.930;3.464;2022-09-09T16:01:56;20.40;75.10
42683;DHT22;28293;50.930;3.464;2022-09-09T16:04:24;20.40;74.90
42683;DHT22;28293;50.930;3.464;2022-09-09T16:07:01;20.20;74.30
42683;DHT22;28293;50.930;3.464;2022-09-09T16:09:29;20.00;75.60
42683;DHT22;28293;50.930;3.464;2022-09-09T16:11:59;20.10;76.30
42683;DHT22;28293;50.930;3.464;2022-09-09T16:14:26;20.10;75.80
42683;DHT22;28293;50.930;3.464;2022-09-09T16:16:52;20.10;76.60
42683;DHT22;28293;50.930;3.464;2022-09-09T16:19:18;20.20;78.40
42683;DHT22;28293;50.930;3.464;2022-09-09T16:21:49;20.10;79.60
42683;DHT22;28293;50.930;3.464;2022-09-09T16:24:17;20.00;80.20
42683;DHT22;28293;50.930;3.464;2022-09-09T16:26:48;19.90;79.30
42683;DHT22;28293;50.930;3.464;2022-09-09T16:29:15;19.70;79.60
42683;DHT22;28293;50.930;3.464;2022-09-09T16:31:41;19.60;80.50
42683;DHT22;28293;50.930;3.464;2022-09-09T16:34:08;19.40;80.70
42683;DHT22;28293;50.930;3.464;2022-09-09T16:36:36;19.20;80.80
42683;DHT22;28293;50.930;3.464;2022-09-09T16:39:06;19.20;80.00
42683;DHT22;28293;50.930;3.464;2022-09-09T16:41:32;19.00;80.20
42683;DHT22;28293;50.930;3.464;2022-09-09T16:44:00;19.00;80.10
42683;DHT22;28293;50.930;3.464;2022-09-09T16:46:28;19.10;79.40
42683;DHT22;28293;50.930;3.464;2022-09-09T16:48:56;19.10;79.80
42683;DHT22;28293;50.930;3.464;2022-09-09T16:51:28;19.10;78.70
42683;DHT22;28293;50.930;3.464;2022-09-09T16:53:55;19.00;78.30
42683;DHT22;28293;50.930;3.464;2022-09-09T16:56:25;19.10;78.70
42683;DHT22;28293;50.930;3.464;2022-09-09T16:58:57;19.10;78.80
42683;DHT22;28293;50.930;3.464;2022-09-09T17:01:25;19.10;77.60
42683;DHT22;28293;50.930;3.464;2022-09-09T17:03:59;19.10;78.60
42683;DHT22;28293;50.930;3.464;2022-09-09T17:06:26;19.10;78.80
42683;DHT22;28293;50.930;3.464;2022-09-09T17:11:22;19.10;79.60
42683;DHT22;28293;50.930;3.464;2022-09-09T17:13:49;19.20;79.10
42683;DHT22;28293;50.930;3.464;2022-09-09T17:16:17;19.10;78.60
42683;DHT22;28293;50.930;3.464;2022-09-09T17:18:45;19.00;77.90
42683;DHT22;28293;50.930;3.464;2022-09-09T17:21:17;19.10;77.80
42683;DHT22;28293;50.930;3.464;2022-09-09T17:23:44;19.00;77.50
42683;DHT22;28293;50.930;3.464;2022-09-09T17:26:13;19.00;78.00
42683;DHT22;28293;50.930;3.464;2022-09-09T17:28:40;18.80;77.40
42683;DHT22;28293;50.930;3.464;2022-09-09T17:31:10;18.80;78.00
42683;DHT22;28293;50.930;3.464;2022-09-09T17:33:38;18.60;77.50
42683;DHT22;28293;50.930;3.464;2022-09-09T17:36:11;18.60;77.90
42683;DHT22;28293;50.930;3.464;2022-09-09T17:38:37;18.50;77.70
42683;DHT22;28293;50.930;3.464;2022-09-09T17:41:06;18.40;77.80
42683;DHT22;28293;50.930;3.464;2022-09-09T17:43:32;18.40;78.30